createdAt,value
2023-07-06T00:01:01.101Z,1.60
2023-07-06T00:03:29.034Z,1.70
2023-07-06T00:05:57.104Z,1.65
2023-07-06T00:08:25.142Z,1.52
2023-07-06T00:10:53.052Z,1.88
2023-07-06T00:13:23.362Z,1.73
2023-07-06T00:15:51.798Z,2.17
2023-07-06T00:18:22.168Z,1.90
2023-07-06T00:20:50.592Z,1.85
2023-07-06T00:23:18.674Z,1.67
2023-07-06T00:25:46.890Z,1.80
2023-07-06T00:28:15.207Z,1.77
2023-07-06T00:30:54.563Z,1.70
2023-07-06T00:33:24.343Z,1.77
2023-07-06T00:35:52.585Z,1.48
2023-07-06T00:38:22.706Z,1.35
2023-07-06T00:40:52.062Z,1.65
2023-07-06T00:43:21.957Z,1.70
2023-07-06T00:45:54.060Z,1.95
2023-07-06T00:48:23.725Z,2.10
2023-07-06T00:50:53.341Z,1.92
2023-07-06T00:53:21.651Z,1.60
2023-07-06T00:55:49.623Z,1.80
2023-07-06T00:58:19.506Z,1.80
2023-07-06T01:00:49.067Z,2.17
2023-07-06T01:03:20.879Z,1.55
2023-07-06T01:05:49.680Z,1.83
2023-07-06T01:08:20.542Z,1.80
2023-07-06T01:10:48.423Z,2.17
2023-07-06T01:13:16.750Z,1.90
2023-07-06T01:15:47.780Z,1.65
2023-07-06T01:18:18.791Z,1.60
2023-07-06T01:20:47.373Z,1.48
2023-07-06T01:23:56.935Z,2.17
2023-07-06T02:02:49.600Z,2.10
2023-07-06T02:05:18.072Z,2.00
2023-07-06T02:07:46.066Z,1.92
2023-07-06T02:10:15.720Z,2.30
2023-07-06T02:12:44.146Z,1.88
2023-07-06T02:15:12.526Z,1.80
2023-07-06T02:17:40.451Z,1.50
2023-07-06T02:20:11.521Z,1.88
2023-07-06T02:22:40.877Z,1.90
2023-07-06T02:25:09.705Z,1.98
2023-07-06T02:27:37.544Z,2.05
2023-07-06T02:30:06.591Z,1.60
2023-07-06T02:32:34.607Z,1.73
2023-07-06T02:35:03.550Z,1.80
2023-07-06T02:37:32.810Z,2.00
2023-07-06T02:40:01.460Z,1.75
2023-07-06T02:42:29.577Z,1.92
2023-07-06T02:44:59.027Z,1.73
2023-07-06T02:47:28.414Z,2.00
2023-07-06T02:49:56.323Z,2.03
2023-07-06T02:52:24.215Z,1.55
2023-07-06T02:54:54.742Z,1.70
2023-07-06T02:57:22.587Z,2.05
2023-07-06T02:59:52.158Z,2.05
2023-07-06T03:02:20.140Z,1.60
2023-07-06T03:04:48.076Z,1.67
2023-07-06T03:07:16.650Z,1.77
2023-07-06T03:09:45.476Z,1.63
2023-07-06T03:12:15.663Z,1.75
2023-07-06T03:14:47.355Z,1.80
2023-07-06T03:17:15.677Z,1.50
2023-07-06T03:19:43.781Z,1.90
2023-07-06T03:22:12.041Z,2.00
2023-07-06T03:24:40.057Z,1.83
2023-07-06T03:27:08.370Z,2.05
2023-07-06T03:29:37.539Z,1.83
2023-07-06T03:32:07.382Z,1.70
2023-07-06T03:34:35.261Z,2.22
2023-07-06T03:37:05.862Z,1.77
2023-07-06T03:39:34.400Z,1.70
2023-07-06T03:42:02.613Z,1.50
2023-07-06T03:44:30.511Z,1.90
2023-07-06T03:47:02.229Z,2.00
2023-07-06T03:49:35.210Z,1.77
2023-07-06T03:52:03.598Z,1.80
2023-07-06T03:54:32.321Z,1.80
2023-07-06T03:57:00.226Z,1.95
2023-07-06T03:59:32.908Z,1.58
2023-07-06T04:02:02.126Z,1.90
2023-07-06T04:04:30.115Z,2.03
2023-07-06T04:06:58.013Z,1.85
2023-07-06T04:09:27.237Z,1.90
2023-07-06T04:11:55.091Z,1.70
2023-07-06T04:14:26.385Z,1.58
2023-07-06T04:16:55.343Z,1.65
2023-07-06T04:19:24.738Z,1.63
2023-07-06T04:21:52.977Z,1.35
2023-07-06T04:24:20.884Z,1.88
2023-07-06T04:26:48.845Z,1.60
2023-07-06T04:29:16.675Z,1.48
2023-07-06T04:31:45.423Z,1.65
2023-07-06T04:34:15.170Z,1.70
2023-07-06T04:36:46.942Z,1.67
2023-07-06T04:39:14.848Z,3.40
2023-07-06T04:41:44.586Z,2.70
2023-07-06T04:44:13.039Z,3.70
2023-07-06T04:46:41.199Z,1.90
2023-07-06T04:49:09.091Z,1.95
2023-07-06T04:51:37.284Z,1.85
2023-07-06T04:54:06.700Z,1.92
2023-07-06T04:56:37.164Z,1.48
2023-07-06T04:59:05.192Z,1.55
2023-07-06T05:01:33.094Z,1.88
2023-07-06T05:04:02.498Z,1.83
2023-07-06T05:06:30.378Z,1.70
2023-07-06T05:08:58.246Z,1.83
2023-07-06T05:11:27.601Z,2.00
2023-07-06T05:13:55.528Z,2.67
2023-07-06T05:16:23.414Z,1.42
2023-07-06T05:18:52.732Z,1.60
2023-07-06T05:21:20.648Z,2.10
2023-07-06T05:23:48.962Z,1.73
2023-07-06T05:26:16.905Z,1.80
2023-07-06T05:28:46.097Z,1.70
2023-07-06T05:31:13.994Z,1.63
2023-07-06T05:33:41.806Z,1.63
2023-07-06T05:36:09.679Z,1.50
2023-07-06T05:38:37.549Z,1.25
2023-07-06T05:41:05.721Z,1.70
2023-07-06T05:43:33.617Z,1.58
2023-07-06T05:46:02.853Z,1.83
2023-07-06T05:48:31.434Z,1.77
2023-07-06T05:50:59.270Z,1.80
2023-07-06T05:53:28.553Z,1.65
2023-07-06T05:55:56.733Z,1.85
2023-07-06T05:58:24.699Z,1.35
2023-07-06T06:00:54.210Z,1.88
2023-07-06T06:03:23.475Z,1.65
2023-07-06T06:05:54.143Z,1.35
2023-07-06T06:08:22.054Z,1.75
2023-07-06T06:10:51.237Z,1.40
2023-07-06T06:13:19.374Z,1.52
2023-07-06T06:15:48.858Z,1.65
2023-07-06T06:18:16.754Z,2.00
2023-07-06T06:20:46.349Z,1.48
2023-07-06T06:23:14.502Z,1.67
2023-07-06T06:25:42.430Z,1.23
2023-07-06T06:28:10.471Z,1.40
2023-07-06T06:30:39.976Z,1.83
2023-07-06T06:33:07.949Z,1.58
2023-07-06T06:35:35.887Z,1.45
2023-07-06T06:38:06.801Z,1.48
2023-07-06T06:40:37.360Z,1.55
2023-07-06T06:43:05.288Z,1.63
2023-07-06T06:45:34.128Z,1.42
2023-07-06T06:48:02.069Z,1.60
2023-07-06T06:50:30.000Z,1.58
2023-07-06T06:52:57.882Z,1.20
2023-07-06T06:55:27.097Z,1.40
2023-07-06T06:57:54.957Z,1.02
2023-07-06T07:00:22.966Z,1.38
2023-07-06T07:02:51.645Z,1.42
2023-07-06T07:05:20.139Z,1.30
2023-07-06T07:07:48.727Z,1.50
2023-07-06T07:10:16.717Z,1.42
2023-07-06T07:12:46.004Z,1.25
2023-07-06T07:15:15.258Z,1.15
2023-07-06T07:17:44.040Z,1.25
2023-07-06T07:20:14.332Z,1.60
2023-07-06T07:22:42.168Z,1.35
2023-07-06T07:25:10.547Z,1.30
2023-07-06T07:27:38.473Z,1.42
2023-07-06T07:30:10.013Z,0.95
2023-07-06T07:32:37.985Z,1.25
2023-07-06T07:35:07.762Z,1.20
2023-07-06T07:37:36.344Z,1.30
2023-07-06T07:40:06.439Z,1.50
2023-07-06T07:42:34.340Z,1.13
2023-07-06T07:45:02.180Z,1.38
2023-07-06T07:47:31.453Z,1.15
2023-07-06T07:49:59.399Z,1.40
2023-07-06T07:52:29.886Z,1.00
2023-07-06T07:54:57.794Z,1.30
2023-07-06T07:57:25.667Z,1.30
2023-07-06T07:59:54.060Z,1.20
2023-07-06T08:02:21.919Z,1.13
2023-07-06T08:04:51.379Z,1.10
2023-07-06T08:07:19.284Z,1.13
2023-07-06T08:09:47.132Z,1.10
2023-07-06T08:12:15.156Z,1.15
2023-07-06T08:14:43.410Z,1.10
2023-07-06T08:17:12.083Z,1.00
2023-07-06T08:20:00.792Z,0.95
2023-07-06T08:22:31.046Z,1.00
2023-07-06T08:24:59.591Z,0.70
2023-07-06T08:27:27.604Z,0.70
2023-07-06T08:29:55.434Z,0.88
2023-07-06T08:32:23.794Z,0.60
2023-07-06T08:34:52.669Z,0.65
2023-07-06T08:37:20.740Z,0.60
2023-07-06T08:39:49.937Z,0.82
2023-07-06T08:42:20.123Z,0.73
2023-07-06T08:44:51.843Z,0.70
2023-07-06T08:47:19.928Z,0.55
2023-07-06T08:49:47.970Z,0.60
2023-07-06T08:52:15.894Z,0.70
2023-07-06T08:54:52.140Z,0.90
2023-07-06T08:57:23.453Z,0.70
2023-07-06T08:59:52.488Z,0.63
2023-07-06T09:02:21.948Z,0.80
2023-07-06T09:04:51.533Z,0.70
2023-07-06T09:07:20.595Z,0.90
2023-07-06T09:09:49.151Z,0.70
2023-07-06T09:12:22.128Z,0.55
2023-07-06T09:14:52.158Z,0.60
2023-07-06T09:17:20.190Z,0.60
2023-07-06T09:19:48.446Z,1.05
2023-07-06T09:22:16.318Z,0.80
2023-07-06T09:24:46.754Z,0.60
2023-07-06T09:27:18.891Z,0.80
2023-07-06T09:29:57.522Z,0.82
2023-07-06T09:32:25.443Z,0.93
2023-07-06T09:34:56.497Z,0.70
2023-07-06T09:37:24.841Z,0.95
2023-07-06T09:40:00.030Z,0.90
2023-07-06T09:42:29.298Z,1.10
2023-07-06T09:44:58.578Z,1.00
2023-07-06T09:47:26.633Z,0.98
2023-07-06T09:49:56.647Z,0.90
2023-07-06T09:52:24.476Z,0.93
2023-07-06T09:54:56.018Z,0.80
2023-07-06T09:57:26.347Z,0.95
2023-07-06T09:59:54.416Z,1.10
2023-07-06T10:02:37.370Z,0.88
2023-07-06T10:05:14.062Z,0.93
2023-07-06T10:07:46.166Z,0.80
2023-07-06T10:10:17.045Z,1.20
2023-07-06T10:12:47.447Z,0.90
2023-07-06T10:15:18.969Z,1.00
2023-07-06T10:17:50.466Z,0.80
2023-07-06T10:20:21.373Z,1.10
2023-07-06T10:23:00.928Z,1.20
2023-07-06T10:25:34.779Z,1.00
2023-07-06T10:28:06.132Z,1.30
2023-07-06T10:30:34.690Z,1.30
2023-07-06T10:33:07.844Z,0.93
2023-07-06T10:35:37.126Z,1.02
2023-07-06T10:38:07.989Z,1.42
2023-07-06T10:40:38.601Z,0.93
2023-07-06T10:43:22.603Z,1.17
2023-07-06T10:45:52.845Z,0.95
2023-07-06T10:48:33.178Z,1.10
2023-07-06T10:51:19.442Z,1.25
2023-07-06T10:53:51.385Z,1.00
2023-07-06T10:56:21.031Z,1.25
2023-07-06T10:58:50.678Z,1.08
2023-07-06T11:01:19.306Z,1.10
2023-07-06T11:03:48.912Z,1.30
2023-07-06T11:06:17.952Z,1.00
2023-07-06T11:09:17.570Z,1.00
2023-07-06T11:12:00.724Z,1.00
2023-07-06T11:14:32.471Z,0.80
2023-07-06T11:17:03.949Z,1.10
2023-07-06T11:19:36.196Z,0.85
2023-07-06T11:22:06.674Z,1.27
2023-07-06T11:24:37.532Z,1.40
2023-07-06T11:27:07.432Z,1.33
2023-07-06T11:29:35.346Z,1.00
2023-07-06T11:32:10.595Z,1.20
2023-07-06T11:34:44.298Z,1.27
2023-07-06T11:37:16.327Z,1.17
2023-07-06T11:39:47.063Z,0.95
2023-07-06T11:42:23.842Z,1.13
2023-07-06T11:44:53.337Z,1.27
2023-07-06T11:47:32.005Z,0.90
2023-07-06T11:50:02.870Z,1.35
2023-07-06T11:52:32.623Z,1.17
2023-07-06T11:55:08.391Z,1.00
2023-07-06T11:57:44.074Z,1.30
2023-07-06T12:00:23.757Z,1.10
2023-07-06T12:03:00.225Z,1.15
2023-07-06T12:05:31.883Z,1.15
2023-07-06T12:08:01.229Z,1.17
2023-07-06T12:10:30.614Z,0.98
2023-07-06T12:12:58.491Z,1.25
2023-07-06T12:15:26.367Z,1.30
2023-07-06T12:17:57.078Z,1.10
2023-07-06T12:20:26.392Z,1.00
2023-07-06T12:22:58.042Z,1.10
2023-07-06T12:25:28.725Z,1.30
2023-07-06T12:28:00.830Z,0.90
2023-07-06T12:30:34.277Z,1.45
2023-07-06T12:33:05.337Z,1.05
2023-07-06T12:35:34.786Z,1.13
2023-07-06T12:38:04.764Z,1.15
2023-07-06T12:40:34.462Z,1.15
2023-07-06T12:43:05.333Z,1.05
2023-07-06T12:45:33.898Z,1.20
2023-07-06T12:48:04.560Z,1.17
2023-07-06T12:50:36.638Z,1.20
2023-07-06T12:53:10.065Z,0.90
2023-07-06T12:55:38.035Z,1.30
2023-07-06T12:58:27.281Z,1.15
2023-07-06T13:01:02.128Z,1.17
2023-07-06T13:03:30.095Z,1.10
2023-07-06T13:05:58.132Z,1.02
2023-07-06T13:08:27.479Z,1.25
2023-07-06T13:11:01.520Z,1.30
2023-07-06T13:13:29.456Z,1.00
2023-07-06T13:16:02.468Z,1.40
2023-07-06T13:18:31.143Z,1.23
2023-07-06T13:20:59.066Z,1.23
2023-07-06T13:23:29.243Z,0.90
2023-07-06T13:25:57.795Z,1.10
2023-07-06T13:28:25.848Z,1.30
2023-07-06T13:30:53.970Z,1.10
2023-07-06T13:33:21.877Z,1.15
2023-07-06T13:35:49.769Z,1.10
2023-07-06T13:38:17.904Z,1.20
2023-07-06T13:40:49.747Z,0.90
2023-07-06T13:43:18.478Z,1.23
2023-07-06T13:45:46.605Z,1.40
2023-07-06T13:48:15.529Z,1.48
2023-07-06T13:50:43.689Z,1.05
2023-07-06T13:53:12.774Z,1.15
2023-07-06T13:55:49.202Z,1.27
2023-07-06T13:58:18.299Z,1.30
2023-07-06T14:00:48.100Z,1.17
2023-07-06T14:03:18.549Z,1.17
2023-07-06T14:05:46.574Z,1.20
2023-07-06T14:08:14.525Z,1.52
2023-07-06T14:10:42.429Z,0.95
2023-07-06T14:13:14.932Z,1.02
2023-07-06T14:15:43.262Z,1.50
2023-07-06T14:18:11.271Z,1.33
2023-07-06T14:20:41.833Z,1.35
2023-07-06T14:23:09.915Z,1.30
2023-07-06T14:25:39.080Z,1.23
2023-07-06T14:28:07.017Z,0.98
2023-07-06T14:30:37.184Z,1.10
2023-07-06T14:33:09.717Z,1.45
2023-07-06T14:35:37.800Z,1.00
2023-07-06T14:38:07.162Z,1.25
2023-07-06T14:40:36.604Z,1.35
2023-07-06T14:43:04.568Z,1.30
2023-07-06T14:45:33.338Z,1.08
2023-07-06T14:48:02.660Z,1.30
2023-07-06T14:50:30.534Z,1.20
2023-07-06T14:52:59.014Z,1.20
2023-07-06T14:55:28.197Z,1.10
2023-07-06T14:57:56.708Z,1.10
2023-07-06T15:00:24.859Z,1.38
2023-07-06T15:02:53.778Z,1.10
2023-07-06T15:05:23.053Z,1.63
2023-07-06T15:07:50.903Z,1.65
2023-07-06T15:10:19.406Z,1.13
2023-07-06T15:12:47.379Z,1.20
2023-07-06T15:15:16.312Z,1.33
2023-07-06T15:17:44.244Z,1.08
2023-07-06T15:20:12.960Z,1.25
2023-07-06T15:22:42.248Z,1.23
2023-07-06T15:25:11.254Z,1.00
2023-07-06T15:27:40.763Z,1.30
2023-07-06T15:30:10.392Z,1.30
2023-07-06T15:32:38.309Z,1.10
2023-07-06T15:35:06.992Z,1.35
2023-07-06T15:37:35.019Z,1.20
2023-07-06T15:40:04.556Z,1.30
2023-07-06T15:42:32.401Z,1.15
2023-07-06T15:45:00.281Z,1.40
2023-07-06T15:47:31.769Z,1.48
2023-07-06T15:50:04.325Z,1.20
2023-07-06T15:52:32.172Z,1.23
2023-07-06T15:55:00.134Z,1.67
2023-07-06T15:57:29.325Z,1.30
2023-07-06T16:00:09.404Z,1.10
2023-07-06T16:02:38.621Z,1.17
2023-07-06T16:05:07.242Z,1.63
2023-07-06T16:07:35.135Z,1.15
2023-07-06T16:10:03.077Z,1.27
2023-07-06T16:12:32.571Z,1.60
2023-07-06T16:15:00.755Z,1.30
2023-07-06T16:17:28.727Z,1.83
2023-07-06T16:19:56.633Z,3.60
2023-07-06T16:22:24.531Z,1.48
2023-07-06T16:24:52.352Z,1.27
2023-07-06T16:27:20.147Z,1.48
2023-07-06T16:29:49.365Z,1.42
2023-07-06T16:32:17.698Z,1.60
2023-07-06T16:34:45.560Z,1.20
2023-07-06T16:37:13.443Z,1.33
2023-07-06T16:39:41.353Z,1.20
2023-07-06T16:42:09.853Z,1.25
2023-07-06T16:44:37.934Z,1.52
2023-07-06T16:47:07.341Z,1.20
2023-07-06T16:49:35.275Z,1.60
2023-07-06T16:52:03.085Z,1.23
2023-07-06T16:54:30.950Z,1.20
2023-07-06T16:56:58.817Z,1.40
2023-07-06T16:59:26.592Z,1.30
2023-07-06T17:01:54.497Z,1.13
2023-07-06T17:04:23.811Z,1.10
2023-07-06T17:06:52.088Z,1.10
2023-07-06T17:09:21.024Z,1.40
2023-07-06T17:11:50.681Z,1.65
2023-07-06T17:14:19.316Z,1.30
2023-07-06T17:16:47.219Z,1.60
2023-07-06T17:19:15.576Z,1.33
2023-07-06T17:21:44.766Z,1.30
2023-07-06T17:24:12.686Z,1.10
2023-07-06T17:26:40.484Z,1.20
2023-07-06T17:29:08.645Z,1.15
2023-07-06T17:31:36.484Z,1.73
2023-07-06T17:34:04.475Z,1.40
2023-07-06T17:36:32.259Z,1.40
2023-07-06T17:39:01.405Z,1.58
2023-07-06T17:41:29.260Z,1.25
2023-07-06T17:43:58.074Z,1.65
2023-07-06T17:46:26.017Z,1.23
2023-07-06T17:48:54.517Z,1.20
2023-07-06T17:51:22.319Z,1.30
2023-07-06T17:53:50.130Z,2.00
2023-07-06T17:56:19.661Z,1.50
2023-07-06T17:58:47.534Z,1.20
2023-07-06T18:01:15.449Z,1.30
2023-07-06T18:03:43.409Z,1.08
2023-07-06T18:06:11.922Z,1.08
2023-07-06T18:08:39.774Z,1.73
2023-07-06T18:11:08.039Z,1.40
2023-07-06T18:13:38.422Z,1.33
2023-07-06T18:16:06.801Z,1.20
2023-07-06T18:18:34.660Z,1.33
2023-07-06T18:21:03.175Z,1.20
2023-07-06T18:23:31.167Z,1.40
2023-07-06T18:25:59.706Z,1.23
2023-07-06T18:28:27.853Z,1.30
2023-07-06T18:30:57.861Z,1.20
2023-07-06T18:33:25.959Z,1.10
2023-07-06T18:35:53.843Z,1.30
2023-07-06T18:38:21.999Z,1.30
2023-07-06T18:40:55.348Z,1.40
2023-07-06T18:43:24.556Z,1.20
2023-07-06T18:45:54.168Z,1.15
2023-07-06T18:48:23.554Z,1.25
2023-07-06T18:50:51.468Z,1.42
2023-07-06T18:53:23.910Z,1.45
2023-07-06T18:55:54.623Z,1.20
2023-07-06T18:58:22.530Z,1.38
2023-07-06T19:00:50.407Z,1.10
2023-07-06T19:03:18.369Z,1.20
2023-07-06T19:05:49.623Z,1.10
2023-07-06T19:08:17.490Z,1.40
2023-07-06T19:10:45.731Z,1.42
2023-07-06T19:13:13.641Z,1.20
2023-07-06T19:15:42.332Z,1.20
2023-07-06T19:18:10.314Z,1.30
2023-07-06T19:20:38.146Z,1.45
2023-07-06T19:23:08.038Z,1.40
2023-07-06T19:25:37.840Z,1.40
2023-07-06T19:28:06.033Z,1.27
2023-07-06T19:30:34.015Z,1.40
2023-07-06T19:33:02.047Z,1.33
2023-07-06T19:35:30.056Z,1.20
2023-07-06T19:37:58.007Z,1.27
2023-07-06T19:40:27.380Z,1.17
2023-07-06T19:42:55.228Z,1.17
2023-07-06T19:45:24.408Z,1.30
2023-07-06T19:47:54.732Z,1.27
2023-07-06T19:50:22.725Z,1.25
2023-07-06T19:52:50.934Z,1.40
2023-07-06T19:55:18.817Z,1.52
2023-07-06T19:57:48.078Z,1.58
2023-07-06T20:00:16.532Z,1.48
2023-07-06T20:02:45.108Z,1.60
2023-07-06T20:05:13.108Z,1.98
2023-07-06T20:07:41.205Z,1.60
2023-07-06T20:10:09.898Z,1.88
2023-07-06T20:12:37.829Z,1.58
2023-07-06T20:15:08.315Z,1.85
2023-07-06T20:17:36.233Z,1.48
2023-07-06T20:20:05.527Z,1.40
2023-07-06T20:22:33.856Z,1.58
2023-07-06T20:25:01.876Z,1.50
2023-07-06T20:27:29.729Z,1.80
2023-07-06T20:29:57.574Z,1.52
2023-07-06T20:32:26.851Z,1.38
2023-07-06T20:34:54.784Z,1.42
2023-07-06T20:37:22.636Z,1.23
2023-07-06T20:39:51.479Z,1.20
2023-07-06T20:42:19.776Z,1.20
2023-07-06T20:44:47.813Z,1.15
2023-07-06T20:47:15.770Z,1.58
2023-07-06T20:49:45.753Z,1.40
2023-07-06T20:52:14.547Z,1.15
2023-07-06T20:54:42.558Z,1.80
2023-07-06T20:57:10.536Z,1.50
2023-07-06T20:59:38.489Z,1.80
2023-07-06T21:02:06.605Z,1.42
2023-07-06T21:04:34.489Z,1.60
2023-07-06T21:07:04.261Z,1.52
2023-07-06T21:09:32.249Z,1.48
2023-07-06T21:12:00.242Z,1.80
2023-07-06T21:14:28.216Z,1.80
2023-07-06T21:16:56.242Z,1.40
2023-07-06T21:19:24.201Z,1.60
2023-07-06T21:21:52.485Z,1.40
2023-07-06T21:24:21.738Z,1.50
2023-07-06T21:26:49.622Z,1.40
2023-07-06T21:29:17.481Z,1.60
2023-07-06T21:31:45.500Z,1.55
2023-07-06T21:34:13.672Z,2.05
2023-07-06T21:36:41.545Z,1.40
2023-07-06T21:39:09.474Z,1.33
2023-07-06T21:41:38.922Z,1.70
2023-07-06T21:44:07.114Z,1.60
2023-07-06T21:46:35.224Z,1.60
2023-07-06T21:49:03.165Z,1.70
2023-07-06T21:51:31.170Z,1.60
2023-07-06T21:53:59.013Z,1.80
2023-07-06T21:56:27.319Z,1.40
2023-07-06T21:58:56.485Z,1.38
2023-07-06T22:01:24.510Z,1.70
2023-07-06T22:03:52.483Z,1.70
2023-07-06T22:06:21.420Z,1.58
2023-07-06T22:08:49.419Z,1.95
2023-07-06T22:11:18.529Z,1.10
2023-07-06T22:13:46.786Z,1.63
2023-07-06T22:16:17.991Z,1.67
2023-07-06T22:18:46.002Z,2.05
2023-07-06T22:21:13.842Z,1.50
2023-07-06T22:23:42.113Z,1.35
2023-07-06T22:26:10.361Z,1.60
2023-07-06T22:28:38.240Z,1.70
2023-07-06T22:31:07.761Z,1.33
2023-07-06T22:33:37.505Z,1.70
2023-07-06T22:36:08.534Z,1.40
2023-07-06T22:38:37.868Z,1.48
2023-07-06T22:41:05.797Z,1.98
2023-07-06T22:43:34.648Z,1.60
2023-07-06T22:46:02.607Z,1.85
2023-07-06T22:48:30.571Z,1.40
2023-07-06T22:51:01.812Z,1.42
2023-07-06T22:53:29.922Z,1.60
2023-07-06T22:55:57.866Z,1.70
2023-07-06T22:58:25.745Z,1.42
2023-07-06T23:00:53.718Z,1.70
2023-07-06T23:03:21.908Z,1.40
2023-07-06T23:05:49.925Z,1.70
2023-07-06T23:08:19.116Z,2.08
2023-07-06T23:10:46.976Z,1.60
2023-07-06T23:13:14.854Z,2.30
2023-07-06T23:15:44.908Z,1.60
2023-07-06T23:18:12.762Z,1.50
2023-07-06T23:20:40.749Z,1.63
2023-07-06T23:23:08.702Z,2.05
2023-07-06T23:25:39.883Z,1.70
2023-07-06T23:28:09.191Z,1.85
2023-07-06T23:30:38.443Z,1.67
2023-07-06T23:33:09.823Z,1.65
2023-07-06T23:35:43.549Z,1.83
2023-07-06T23:38:13.524Z,1.52
2023-07-06T23:40:44.933Z,1.38
2023-07-06T23:43:13.196Z,1.50
2023-07-06T23:45:41.001Z,1.52
2023-07-06T23:48:09.414Z,1.30
2023-07-06T23:50:37.257Z,1.90
2023-07-06T23:53:05.133Z,1.63
2023-07-06T23:55:33.061Z,1.77
2023-07-06T23:58:02.333Z,1.30
